createdAt,value
2019-03-23T05:19:59.703Z,34.10
2019-03-23T05:22:28.223Z,41.00
2019-03-23T05:24:56.691Z,36.50
2019-03-23T05:27:25.295Z,38.43
2019-03-23T05:29:53.854Z,39.97
2019-03-23T05:32:22.319Z,39.23
2019-03-23T05:34:50.793Z,35.40
2019-03-23T05:37:19.256Z,34.60
2019-03-23T05:39:47.729Z,35.83
2019-03-23T05:42:16.193Z,32.63
2019-03-23T05:44:44.671Z,33.97
2019-03-23T05:47:13.269Z,32.80
2019-03-23T05:49:41.805Z,32.90
2019-03-23T05:52:10.354Z,34.50
2019-03-23T05:54:38.812Z,30.47
2019-03-23T05:57:07.281Z,32.60
2019-03-23T05:59:35.743Z,34.50
2019-03-23T06:02:04.279Z,33.10
2019-03-23T06:04:32.781Z,32.67
2019-03-23T06:07:01.241Z,35.23
2019-03-23T06:09:29.807Z,34.20
2019-03-23T06:11:58.323Z,27.57
2019-03-23T06:14:26.794Z,29.27
2019-03-23T06:16:55.279Z,29.97
2019-03-23T06:19:23.749Z,27.50
2019-03-23T06:21:52.287Z,26.73
2019-03-23T06:24:20.762Z,29.30
2019-03-23T06:26:49.229Z,30.80
2019-03-23T06:29:17.711Z,30.30
2019-03-23T06:31:46.169Z,27.50
2019-03-23T06:34:14.662Z,28.37
2019-03-23T06:36:43.193Z,32.03
2019-03-23T06:39:11.675Z,30.27
2019-03-23T06:41:40.125Z,31.23
2019-03-23T06:44:08.619Z,30.53
2019-03-23T06:46:37.081Z,30.63
2019-03-23T06:49:05.799Z,32.33
2019-03-23T06:51:34.278Z,29.10
2019-03-23T06:54:02.766Z,30.80
2019-03-23T06:56:31.322Z,31.53
2019-03-23T06:58:59.844Z,32.77
2019-03-23T07:01:28.529Z,29.47
2019-03-23T07:03:57.010Z,33.47
2019-03-23T07:06:25.488Z,32.50
2019-03-23T07:08:53.980Z,32.93
2019-03-23T07:11:22.462Z,36.40
2019-03-23T07:13:51.018Z,38.23
2019-03-23T07:16:19.477Z,34.57
2019-03-23T07:18:48.064Z,33.87
2019-03-23T07:21:16.569Z,33.20
2019-03-23T07:23:50.824Z,33.87
2019-03-23T07:26:19.367Z,33.80
2019-03-23T07:28:47.924Z,31.90
2019-03-23T07:31:16.466Z,32.37
2019-03-23T07:33:44.920Z,32.80
2019-03-23T07:36:13.384Z,38.53
2019-03-23T07:38:41.853Z,34.30
2019-03-23T07:41:10.333Z,38.17
2019-03-23T07:43:38.820Z,34.50
2019-03-23T07:46:07.283Z,35.13
2019-03-23T07:48:35.768Z,35.30
2019-03-23T07:51:04.308Z,34.60
2019-03-23T07:53:32.846Z,32.30
2019-03-23T07:56:01.298Z,30.97
2019-03-23T07:58:29.774Z,31.17
2019-03-23T08:00:58.342Z,30.80
2019-03-23T08:03:26.973Z,30.10
2019-03-23T08:05:55.488Z,35.20
2019-03-23T08:08:23.940Z,33.30
2019-03-23T08:10:52.428Z,31.67
2019-03-23T08:13:20.931Z,31.77
2019-03-23T08:15:49.444Z,33.00
2019-03-23T08:18:17.901Z,33.43
2019-03-23T08:20:46.421Z,33.87
2019-03-23T08:23:15.114Z,32.90
2019-03-23T08:25:43.641Z,32.80
2019-03-23T08:28:12.190Z,32.87
2019-03-23T08:30:40.650Z,33.17
2019-03-23T08:33:09.254Z,32.73
2019-03-23T08:35:37.781Z,31.17
2019-03-23T08:38:06.568Z,31.10
2019-03-23T08:40:35.899Z,29.97
2019-03-23T08:43:04.577Z,31.27
2019-03-23T08:45:33.068Z,32.37
2019-03-23T08:48:01.597Z,32.17
2019-03-23T08:50:30.147Z,30.30
2019-03-23T08:52:58.612Z,32.30
2019-03-23T08:55:27.105Z,33.10
2019-03-23T08:57:55.888Z,30.70
2019-03-23T09:00:24.407Z,33.00
2019-03-23T09:02:52.923Z,30.27
2019-03-23T09:05:21.468Z,33.27
2019-03-23T09:07:52.372Z,29.60
2019-03-23T09:10:20.190Z,33.00
2019-03-23T09:12:48.661Z,32.70
2019-03-23T09:15:17.233Z,33.20
2019-03-23T09:17:45.724Z,36.40
2019-03-23T09:20:14.389Z,32.97
2019-03-23T09:22:42.887Z,32.40
2019-03-23T09:25:11.336Z,33.93
2019-03-23T09:27:39.835Z,32.77
2019-03-23T09:30:10.945Z,33.93
2019-03-23T09:32:39.429Z,32.07
2019-03-23T09:35:08.143Z,32.10
2019-03-23T09:37:38.027Z,32.23
2019-03-23T09:40:11.114Z,33.40
2019-03-23T09:42:37.727Z,32.10
2019-03-23T09:45:07.927Z,31.80
2019-03-23T09:47:36.769Z,32.73
2019-03-23T09:50:07.850Z,31.60
2019-03-23T09:52:36.500Z,33.47
2019-03-23T09:55:06.298Z,32.13
2019-03-23T09:57:34.768Z,31.77
2019-03-23T10:00:05.063Z,31.30
2019-03-23T10:02:33.511Z,30.00
2019-03-23T10:05:02.031Z,29.40
2019-03-23T10:07:30.578Z,31.40
2019-03-23T10:09:59.228Z,27.37
2019-03-23T10:12:27.693Z,27.63
2019-03-23T10:14:56.229Z,26.90
2019-03-23T10:17:24.742Z,27.33
2019-03-23T10:19:53.339Z,26.40
2019-03-23T10:22:21.824Z,26.80
2019-03-23T10:24:50.285Z,26.37
2019-03-23T10:27:18.778Z,27.90
2019-03-23T10:29:47.456Z,25.50
2019-03-23T10:32:15.993Z,23.87
2019-03-23T10:34:44.466Z,24.53
2019-03-23T10:37:12.974Z,27.20
2019-03-23T10:39:41.444Z,24.70
2019-03-23T10:42:09.974Z,24.40
2019-03-23T10:44:38.492Z,25.37
2019-03-23T10:47:06.996Z,24.47
2019-03-23T10:49:37.077Z,23.97
2019-03-23T10:52:05.538Z,25.67
2019-03-23T10:54:34.020Z,27.60
2019-03-23T10:57:02.491Z,23.30
2019-03-23T10:59:30.972Z,26.70
2019-03-23T11:01:59.421Z,25.83
2019-03-23T11:04:27.972Z,25.30
2019-03-23T11:06:56.443Z,27.23
2019-03-23T11:09:24.936Z,25.80
2019-03-23T11:11:53.535Z,27.60
2019-03-23T11:14:22.149Z,25.20
2019-03-23T11:16:50.664Z,24.77
